sensor_id;sensor_type;location;lat;lon;timestamp;P1;durP1;ratioP1;P2;durP2;ratioP2
47103;SDS011;32853;52.164;5.400;2023-04-25T00:00:20;9.45;;;1.88;;
47103;SDS011;32853;52.164;5.400;2023-04-25T00:02:45;11.90;;;2.13;;
47103;SDS011;32853;52.164;5.400;2023-04-25T00:05:11;9.25;;;2.67;;
47103;SDS011;32853;52.164;5.400;2023-04-25T00:07:36;9.13;;;1.67;;
47103;SDS011;32853;52.164;5.400;2023-04-25T00:10:02;11.90;;;2.10;;
47103;SDS011;32853;52.164;5.400;2023-04-25T00:12:28;11.85;;;2.30;;
47103;SDS011;32853;52.164;5.400;2023-04-25T00:14:54;13.00;;;2.03;;
47103;SDS011;32853;52.164;5.400;2023-04-25T00:17:22;12.32;;;2.15;;
47103;SDS011;32853;52.164;5.400;2023-04-25T00:19:50;9.98;;;2.40;;
47103;SDS011;32853;52.164;5.400;2023-04-25T00:22:16;11.82;;;2.58;;
47103;SDS011;32853;52.164;5.400;2023-04-25T00:24:42;10.77;;;2.58;;
47103;SDS011;32853;52.164;5.400;2023-04-25T00:27:07;16.25;;;2.00;;
47103;SDS011;32853;52.164;5.400;2023-04-25T00:29:39;10.15;;;1.92;;
47103;SDS011;32853;52.164;5.400;2023-04-25T00:32:04;19.23;;;2.60;;
47103;SDS011;32853;52.164;5.400;2023-04-25T00:34:30;8.32;;;1.58;;
47103;SDS011;32853;52.164;5.400;2023-04-25T00:37:06;15.27;;;1.95;;
47103;SDS011;32853;52.164;5.400;2023-04-25T00:39:32;12.02;;;2.20;;
47103;SDS011;32853;52.164;5.400;2023-04-25T00:41:57;18.95;;;2.65;;
47103;SDS011;32853;52.164;5.400;2023-04-25T00:44:22;11.32;;;1.55;;
47103;SDS011;32853;52.164;5.400;2023-04-25T00:46:49;10.35;;;2.15;;
47103;SDS011;32853;52.164;5.400;2023-04-25T00:49:15;7.18;;;1.50;;
47103;SDS011;32853;52.164;5.400;2023-04-25T00:51:41;5.53;;;1.75;;
47103;SDS011;32853;52.164;5.400;2023-04-25T00:54:09;10.50;;;2.20;;
47103;SDS011;32853;52.164;5.400;2023-04-25T00:56:37;15.60;;;1.70;;
47103;SDS011;32853;52.164;5.400;2023-04-25T00:59:03;10.32;;;2.05;;
47103;SDS011;32853;52.164;5.400;2023-04-25T01:01:28;11.32;;;2.10;;
47103;SDS011;32853;52.164;5.400;2023-04-25T01:03:54;10.35;;;1.58;;
47103;SDS011;32853;52.164;5.400;2023-04-25T01:06:21;15.98;;;2.03;;
47103;SDS011;32853;52.164;5.400;2023-04-25T01:08:47;15.20;;;2.38;;
47103;SDS011;32853;52.164;5.400;2023-04-25T01:11:12;7.68;;;2.08;;
47103;SDS011;32853;52.164;5.400;2023-04-25T01:13:41;13.85;;;1.50;;
47103;SDS011;32853;52.164;5.400;2023-04-25T01:16:07;8.38;;;1.33;;
47103;SDS011;32853;52.164;5.400;2023-04-25T01:18:32;12.85;;;1.90;;
47103;SDS011;32853;52.164;5.400;2023-04-25T01:21:08;16.70;;;1.83;;
47103;SDS011;32853;52.164;5.400;2023-04-25T01:23:39;13.38;;;1.75;;
47103;SDS011;32853;52.164;5.400;2023-04-25T01:26:09;11.65;;;1.98;;
47103;SDS011;32853;52.164;5.400;2023-04-25T01:28:36;11.57;;;1.45;;
47103;SDS011;32853;52.164;5.400;2023-04-25T01:31:02;5.95;;;1.88;;
47103;SDS011;32853;52.164;5.400;2023-04-25T01:33:29;15.95;;;2.15;;
47103;SDS011;32853;52.164;5.400;2023-04-25T01:35:55;15.43;;;2.03;;
47103;SDS011;32853;52.164;5.400;2023-04-25T01:38:20;8.30;;;1.75;;
47103;SDS011;32853;52.164;5.400;2023-04-25T01:40:55;8.95;;;1.50;;
47103;SDS011;32853;52.164;5.400;2023-04-25T01:43:23;11.90;;;2.20;;
47103;SDS011;32853;52.164;5.400;2023-04-25T01:45:50;12.13;;;1.50;;
47103;SDS011;32853;52.164;5.400;2023-04-25T01:48:16;6.88;;;1.30;;
47103;SDS011;32853;52.164;5.400;2023-04-25T01:50:41;10.48;;;1.67;;
47103;SDS011;32853;52.164;5.400;2023-04-25T01:53:08;15.85;;;1.77;;
47103;SDS011;32853;52.164;5.400;2023-04-25T01:58:17;9.10;;;2.10;;
47103;SDS011;32853;52.164;5.400;2023-04-25T02:00:43;6.13;;;1.67;;
47103;SDS011;32853;52.164;5.400;2023-04-25T02:03:08;6.68;;;1.38;;
47103;SDS011;32853;52.164;5.400;2023-04-25T02:05:37;12.07;;;1.90;;
47103;SDS011;32853;52.164;5.400;2023-04-25T02:10:45;7.45;;;1.48;;
47103;SDS011;32853;52.164;5.400;2023-04-25T02:13:10;9.05;;;1.60;;
47103;SDS011;32853;52.164;5.400;2023-04-25T02:15:36;12.00;;;1.40;;
47103;SDS011;32853;52.164;5.400;2023-04-25T02:18:01;8.45;;;1.55;;
47103;SDS011;32853;52.164;5.400;2023-04-25T02:20:27;7.20;;;1.50;;
47103;SDS011;32853;52.164;5.400;2023-04-25T02:22:58;7.82;;;1.00;;
47103;SDS011;32853;52.164;5.400;2023-04-25T02:25:37;11.23;;;1.90;;
47103;SDS011;32853;52.164;5.400;2023-04-25T02:28:08;9.40;;;1.75;;
47103;SDS011;32853;52.164;5.400;2023-04-25T02:30:34;18.05;;;1.80;;
47103;SDS011;32853;52.164;5.400;2023-04-25T02:33:05;10.20;;;1.67;;
47103;SDS011;32853;52.164;5.400;2023-04-25T02:35:30;6.20;;;1.90;;
47103;SDS011;32853;52.164;5.400;2023-04-25T02:37:56;6.00;;;1.58;;
47103;SDS011;32853;52.164;5.400;2023-04-25T02:40:29;7.75;;;1.30;;
47103;SDS011;32853;52.164;5.400;2023-04-25T02:42:55;10.60;;;1.40;;
47103;SDS011;32853;52.164;5.400;2023-04-25T02:45:22;11.23;;;2.17;;
47103;SDS011;32853;52.164;5.400;2023-04-25T02:47:48;7.15;;;1.30;;
47103;SDS011;32853;52.164;5.400;2023-04-25T02:50:13;5.38;;;1.70;;
47103;SDS011;32853;52.164;5.400;2023-04-25T02:52:41;5.78;;;1.83;;
47103;SDS011;32853;52.164;5.400;2023-04-25T02:55:07;16.10;;;1.52;;
47103;SDS011;32853;52.164;5.400;2023-04-25T02:57:34;10.85;;;2.08;;
47103;SDS011;32853;52.164;5.400;2023-04-25T02:59:59;9.23;;;1.45;;
47103;SDS011;32853;52.164;5.400;2023-04-25T03:02:25;14.10;;;1.60;;
47103;SDS011;32853;52.164;5.400;2023-04-25T03:04:51;5.35;;;1.20;;
47103;SDS011;32853;52.164;5.400;2023-04-25T03:07:16;10.93;;;1.88;;
47103;SDS011;32853;52.164;5.400;2023-04-25T03:12:58;11.18;;;2.55;;
47103;SDS011;32853;52.164;5.400;2023-04-25T03:15:41;10.80;;;2.72;;
47103;SDS011;32853;52.164;5.400;2023-04-25T03:18:16;9.13;;;1.83;;
47103;SDS011;32853;52.164;5.400;2023-04-25T03:20:48;14.23;;;2.42;;
47103;SDS011;32853;52.164;5.400;2023-04-25T03:23:19;9.02;;;1.38;;
47103;SDS011;32853;52.164;5.400;2023-04-25T03:25:45;15.93;;;1.98;;
47103;SDS011;32853;52.164;5.400;2023-04-25T03:28:10;8.48;;;1.85;;
47103;SDS011;32853;52.164;5.400;2023-04-25T03:30:43;5.72;;;2.28;;
47103;SDS011;32853;52.164;5.400;2023-04-25T03:33:15;17.10;;;3.00;;
47103;SDS011;32853;52.164;5.400;2023-04-25T03:35:40;19.98;;;4.20;;
47103;SDS011;32853;52.164;5.400;2023-04-25T03:38:22;5.95;;;1.80;;
47103;SDS011;32853;52.164;5.400;2023-04-25T03:43:39;3.83;;;1.30;;
47103;SDS011;32853;52.164;5.400;2023-04-25T03:46:06;14.02;;;1.88;;
47103;SDS011;32853;52.164;5.400;2023-04-25T03:48:31;12.23;;;1.45;;
47103;SDS011;32853;52.164;5.400;2023-04-25T03:53:25;7.65;;;1.48;;
47103;SDS011;32853;52.164;5.400;2023-04-25T03:55:59;10.73;;;2.47;;
47103;SDS011;32853;52.164;5.400;2023-04-25T03:58:25;14.38;;;2.30;;
47103;SDS011;32853;52.164;5.400;2023-04-25T04:00:50;15.45;;;2.53;;
47103;SDS011;32853;52.164;5.400;2023-04-25T04:03:15;13.77;;;1.92;;
47103;SDS011;32853;52.164;5.400;2023-04-25T04:05:41;9.55;;;1.63;;
47103;SDS011;32853;52.164;5.400;2023-04-25T04:08:06;7.93;;;1.80;;
47103;SDS011;32853;52.164;5.400;2023-04-25T04:10:32;12.73;;;1.83;;
47103;SDS011;32853;52.164;5.400;2023-04-25T04:12:57;6.72;;;1.02;;
47103;SDS011;32853;52.164;5.400;2023-04-25T04:15:22;8.02;;;1.35;;
47103;SDS011;32853;52.164;5.400;2023-04-25T04:17:48;6.90;;;1.13;;
47103;SDS011;32853;52.164;5.400;2023-04-25T04:20:16;8.98;;;1.30;;
47103;SDS011;32853;52.164;5.400;2023-04-25T04:22:41;5.72;;;0.88;;
47103;SDS011;32853;52.164;5.400;2023-04-25T04:25:07;12.00;;;2.20;;
47103;SDS011;32853;52.164;5.400;2023-04-25T04:27:32;6.75;;;1.17;;
47103;SDS011;32853;52.164;5.400;2023-04-25T04:29:58;5.10;;;1.00;;
47103;SDS011;32853;52.164;5.400;2023-04-25T04:32:23;7.82;;;1.08;;
47103;SDS011;32853;52.164;5.400;2023-04-25T04:34:50;6.10;;;1.02;;
47103;SDS011;32853;52.164;5.400;2023-04-25T04:37:15;7.03;;;1.65;;
47103;SDS011;32853;52.164;5.400;2023-04-25T04:39:41;7.07;;;1.05;;
47103;SDS011;32853;52.164;5.400;2023-04-25T04:42:06;4.25;;;0.65;;
47103;SDS011;32853;52.164;5.400;2023-04-25T04:44:33;8.43;;;1.10;;
47103;SDS011;32853;52.164;5.400;2023-04-25T04:46:59;5.82;;;1.15;;
47103;SDS011;32853;52.164;5.400;2023-04-25T04:49:25;8.18;;;1.10;;
47103;SDS011;32853;52.164;5.400;2023-04-25T04:51:51;7.22;;;1.02;;
47103;SDS011;32853;52.164;5.400;2023-04-25T04:54:17;5.28;;;0.63;;
47103;SDS011;32853;52.164;5.400;2023-04-25T04:56:42;4.70;;;1.33;;
47103;SDS011;32853;52.164;5.400;2023-04-25T04:59:08;12.98;;;0.82;;
47103;SDS011;32853;52.164;5.400;2023-04-25T05:01:34;5.45;;;1.40;;
47103;SDS011;32853;52.164;5.400;2023-04-25T05:04:03;1.67;;;0.60;;
47103;SDS011;32853;52.164;5.400;2023-04-25T05:06:29;11.05;;;0.88;;
47103;SDS011;32853;52.164;5.400;2023-04-25T05:08:56;6.25;;;0.82;;
47103;SDS011;32853;52.164;5.400;2023-04-25T05:11:24;4.53;;;0.90;;
47103;SDS011;32853;52.164;5.400;2023-04-25T05:14:00;5.15;;;1.23;;
47103;SDS011;32853;52.164;5.400;2023-04-25T05:16:25;6.88;;;0.75;;
47103;SDS011;32853;52.164;5.400;2023-04-25T05:18:50;3.00;;;0.55;;
47103;SDS011;32853;52.164;5.400;2023-04-25T05:21:16;7.78;;;1.15;;
47103;SDS011;32853;52.164;5.400;2023-04-25T05:23:41;6.75;;;1.02;;
47103;SDS011;32853;52.164;5.400;2023-04-25T05:26:06;13.10;;;1.25;;
47103;SDS011;32853;52.164;5.400;2023-04-25T05:28:40;4.25;;;0.50;;
47103;SDS011;32853;52.164;5.400;2023-04-25T05:31:07;6.65;;;1.30;;
47103;SDS011;32853;52.164;5.400;2023-04-25T05:33:35;4.75;;;0.77;;
47103;SDS011;32853;52.164;5.400;2023-04-25T05:36:00;5.22;;;0.70;;
47103;SDS011;32853;52.164;5.400;2023-04-25T05:38:35;6.18;;;1.13;;
47103;SDS011;32853;52.164;5.400;2023-04-25T05:41:00;8.50;;;0.82;;
47103;SDS011;32853;52.164;5.400;2023-04-25T05:43:27;15.02;;;1.40;;
47103;SDS011;32853;52.164;5.400;2023-04-25T05:49:06;7.78;;;1.13;;
47103;SDS011;32853;52.164;5.400;2023-04-25T05:51:40;10.30;;;1.05;;
47103;SDS011;32853;52.164;5.400;2023-04-25T05:56:42;3.58;;;0.80;;
47103;SDS011;32853;52.164;5.400;2023-04-25T05:59:09;6.03;;;0.95;;
47103;SDS011;32853;52.164;5.400;2023-04-25T06:01:36;7.85;;;1.10;;
47103;SDS011;32853;52.164;5.400;2023-04-25T06:04:01;4.55;;;1.00;;
47103;SDS011;32853;52.164;5.400;2023-04-25T06:06:27;6.95;;;1.25;;
47103;SDS011;32853;52.164;5.400;2023-04-25T06:08:52;8.63;;;0.90;;
47103;SDS011;32853;52.164;5.400;2023-04-25T06:11:18;3.35;;;1.10;;
47103;SDS011;32853;52.164;5.400;2023-04-25T06:13:43;3.92;;;0.70;;
47103;SDS011;32853;52.164;5.400;2023-04-25T06:16:09;8.98;;;0.80;;
47103;SDS011;32853;52.164;5.400;2023-04-25T06:18:40;5.75;;;1.05;;
47103;SDS011;32853;52.164;5.400;2023-04-25T06:21:09;6.97;;;0.60;;
47103;SDS011;32853;52.164;5.400;2023-04-25T06:23:35;6.70;;;1.75;;
47103;SDS011;32853;52.164;5.400;2023-04-25T06:26:01;9.82;;;1.35;;
47103;SDS011;32853;52.164;5.400;2023-04-25T06:28:26;10.77;;;1.00;;
47103;SDS011;32853;52.164;5.400;2023-04-25T06:30:52;8.23;;;0.85;;
47103;SDS011;32853;52.164;5.400;2023-04-25T06:33:21;10.50;;;0.77;;
47103;SDS011;32853;52.164;5.400;2023-04-25T06:35:49;10.45;;;1.35;;
47103;SDS011;32853;52.164;5.400;2023-04-25T06:38:16;8.48;;;0.85;;
47103;SDS011;32853;52.164;5.400;2023-04-25T06:40:48;4.97;;;0.75;;
47103;SDS011;32853;52.164;5.400;2023-04-25T06:43:14;7.72;;;0.90;;
47103;SDS011;32853;52.164;5.400;2023-04-25T06:45:39;8.95;;;1.05;;
47103;SDS011;32853;52.164;5.400;2023-04-25T06:48:05;8.20;;;0.93;;
47103;SDS011;32853;52.164;5.400;2023-04-25T06:50:30;13.10;;;1.55;;
47103;SDS011;32853;52.164;5.400;2023-04-25T06:52:58;5.90;;;1.10;;
47103;SDS011;32853;52.164;5.400;2023-04-25T06:55:23;2.30;;;1.02;;
47103;SDS011;32853;52.164;5.400;2023-04-25T06:57:54;5.68;;;0.95;;
47103;SDS011;32853;52.164;5.400;2023-04-25T07:00:27;8.85;;;1.58;;
47103;SDS011;32853;52.164;5.400;2023-04-25T07:03:04;11.48;;;1.10;;
47103;SDS011;32853;52.164;5.400;2023-04-25T07:05:33;11.15;;;1.08;;
47103;SDS011;32853;52.164;5.400;2023-04-25T07:08:14;10.43;;;0.80;;
47103;SDS011;32853;52.164;5.400;2023-04-25T07:10:39;12.18;;;0.90;;
47103;SDS011;32853;52.164;5.400;2023-04-25T07:13:05;6.38;;;0.90;;
47103;SDS011;32853;52.164;5.400;2023-04-25T07:15:30;3.95;;;0.63;;
47103;SDS011;32853;52.164;5.400;2023-04-25T07:17:55;8.10;;;0.70;;
47103;SDS011;32853;52.164;5.400;2023-04-25T07:20:21;4.57;;;0.60;;
47103;SDS011;32853;52.164;5.400;2023-04-25T07:22:50;5.70;;;0.82;;
47103;SDS011;32853;52.164;5.400;2023-04-25T07:25:19;10.57;;;1.88;;
47103;SDS011;32853;52.164;5.400;2023-04-25T07:27:46;10.88;;;1.30;;
47103;SDS011;32853;52.164;5.400;2023-04-25T07:30:11;4.05;;;0.55;;
47103;SDS011;32853;52.164;5.400;2023-04-25T07:32:38;3.13;;;0.73;;
47103;SDS011;32853;52.164;5.400;2023-04-25T07:35:10;5.20;;;0.73;;
47103;SDS011;32853;52.164;5.400;2023-04-25T07:37:35;10.50;;;0.93;;
47103;SDS011;32853;52.164;5.400;2023-04-25T07:40:02;6.22;;;1.17;;
47103;SDS011;32853;52.164;5.400;2023-04-25T07:42:31;6.25;;;2.25;;
47103;SDS011;32853;52.164;5.400;2023-04-25T07:44:57;3.80;;;0.80;;
47103;SDS011;32853;52.164;5.400;2023-04-25T07:49:52;5.00;;;0.50;;
47103;SDS011;32853;52.164;5.400;2023-04-25T07:52:17;3.08;;;0.70;;
47103;SDS011;32853;52.164;5.400;2023-04-25T07:54:43;3.00;;;0.50;;
47103;SDS011;32853;52.164;5.400;2023-04-25T07:57:09;8.45;;;1.02;;
47103;SDS011;32853;52.164;5.400;2023-04-25T07:59:35;7.38;;;1.73;;
47103;SDS011;32853;52.164;5.400;2023-04-25T08:02:00;4.43;;;0.57;;
47103;SDS011;32853;52.164;5.400;2023-04-25T08:04:26;14.05;;;2.15;;
47103;SDS011;32853;52.164;5.400;2023-04-25T08:07:01;9.02;;;0.70;;
47103;SDS011;32853;52.164;5.400;2023-04-25T08:09:27;9.25;;;0.63;;
47103;SDS011;32853;52.164;5.400;2023-04-25T08:11:52;3.65;;;0.43;;
47103;SDS011;32853;52.164;5.400;2023-04-25T08:14:23;10.65;;;0.70;;
47103;SDS011;32853;52.164;5.400;2023-04-25T08:16:56;6.60;;;0.73;;
47103;SDS011;32853;52.164;5.400;2023-04-25T08:19:30;5.82;;;0.40;;
47103;SDS011;32853;52.164;5.400;2023-04-25T08:21:56;1.20;;;0.43;;
47103;SDS011;32853;52.164;5.400;2023-04-25T08:24:24;14.43;;;1.20;;
47103;SDS011;32853;52.164;5.400;2023-04-25T08:26:49;4.00;;;0.60;;
47103;SDS011;32853;52.164;5.400;2023-04-25T08:29:16;3.38;;;0.40;;
47103;SDS011;32853;52.164;5.400;2023-04-25T08:31:42;9.25;;;1.10;;
47103;SDS011;32853;52.164;5.400;2023-04-25T08:34:13;8.02;;;0.60;;
47103;SDS011;32853;52.164;5.400;2023-04-25T08:36:47;4.75;;;0.43;;
47103;SDS011;32853;52.164;5.400;2023-04-25T08:39:19;3.13;;;0.40;;
47103;SDS011;32853;52.164;5.400;2023-04-25T08:41:45;5.57;;;0.40;;
47103;SDS011;32853;52.164;5.400;2023-04-25T08:44:15;4.65;;;0.70;;
47103;SDS011;32853;52.164;5.400;2023-04-25T08:46:46;5.97;;;0.70;;
47103;SDS011;32853;52.164;5.400;2023-04-25T08:49:14;2.08;;;1.15;;
47103;SDS011;32853;52.164;5.400;2023-04-25T08:51:45;3.85;;;0.80;;
47103;SDS011;32853;52.164;5.400;2023-04-25T08:54:17;7.63;;;0.57;;
47103;SDS011;32853;52.164;5.400;2023-04-25T08:56:52;5.65;;;0.60;;
47103;SDS011;32853;52.164;5.400;2023-04-25T08:59:20;6.82;;;0.80;;
47103;SDS011;32853;52.164;5.400;2023-04-25T09:01:48;4.85;;;0.85;;
47103;SDS011;32853;52.164;5.400;2023-04-25T09:04:18;4.72;;;0.43;;
47103;SDS011;32853;52.164;5.400;2023-04-25T09:07:00;1.95;;;0.52;;
47103;SDS011;32853;52.164;5.400;2023-04-25T09:09:29;3.13;;;0.45;;
47103;SDS011;32853;52.164;5.400;2023-04-25T09:12:00;8.05;;;0.55;;
47103;SDS011;32853;52.164;5.400;2023-04-25T09:14:31;4.50;;;0.50;;
47103;SDS011;32853;52.164;5.400;2023-04-25T09:19:39;5.25;;;1.08;;
47103;SDS011;32853;52.164;5.400;2023-04-25T09:22:07;6.72;;;0.63;;
47103;SDS011;32853;52.164;5.400;2023-04-25T09:24:37;4.18;;;0.95;;
47103;SDS011;32853;52.164;5.400;2023-04-25T09:27:09;3.83;;;0.85;;
47103;SDS011;32853;52.164;5.400;2023-04-25T09:29:37;10.02;;;0.73;;
47103;SDS011;32853;52.164;5.400;2023-04-25T09:34:48;3.13;;;0.63;;
47103;SDS011;32853;52.164;5.400;2023-04-25T09:37:22;4.22;;;0.40;;
47103;SDS011;32853;52.164;5.400;2023-04-25T09:40:00;4.60;;;0.70;;
47103;SDS011;32853;52.164;5.400;2023-04-25T09:42:31;1.38;;;0.30;;
47103;SDS011;32853;52.164;5.400;2023-04-25T09:47:31;8.65;;;0.68;;
47103;SDS011;32853;52.164;5.400;2023-04-25T09:49:56;6.00;;;0.50;;
47103;SDS011;32853;52.164;5.400;2023-04-25T09:52:24;3.92;;;0.55;;
47103;SDS011;32853;52.164;5.400;2023-04-25T09:54:51;2.47;;;0.52;;
47103;SDS011;32853;52.164;5.400;2023-04-25T09:57:24;1.17;;;0.30;;
47103;SDS011;32853;52.164;5.400;2023-04-25T09:59:55;4.47;;;0.77;;
47103;SDS011;32853;52.164;5.400;2023-04-25T10:02:22;3.90;;;0.50;;
47103;SDS011;32853;52.164;5.400;2023-04-25T10:04:49;10.75;;;0.45;;
47103;SDS011;32853;52.164;5.400;2023-04-25T10:07:18;6.25;;;0.90;;
47103;SDS011;32853;52.164;5.400;2023-04-25T10:09:47;1.25;;;0.57;;
47103;SDS011;32853;52.164;5.400;2023-04-25T10:12:16;3.78;;;0.57;;
47103;SDS011;32853;52.164;5.400;2023-04-25T10:14:43;0.88;;;0.30;;
47103;SDS011;32853;52.164;5.400;2023-04-25T10:17:12;1.75;;;0.20;;
47103;SDS011;32853;52.164;5.400;2023-04-25T10:19:39;2.45;;;0.75;;
47103;SDS011;32853;52.164;5.400;2023-04-25T10:25:05;4.43;;;0.57;;
47103;SDS011;32853;52.164;5.400;2023-04-25T10:27:32;2.20;;;0.50;;
47103;SDS011;32853;52.164;5.400;2023-04-25T10:32:43;1.33;;;0.35;;
47103;SDS011;32853;52.164;5.400;2023-04-25T10:35:15;7.70;;;0.50;;
47103;SDS011;32853;52.164;5.400;2023-04-25T10:45:56;4.75;;;1.00;;
47103;SDS011;32853;52.164;5.400;2023-04-25T10:48:25;2.55;;;0.50;;
47103;SDS011;32853;52.164;5.400;2023-04-25T10:53:46;4.10;;;0.43;;
47103;SDS011;32853;52.164;5.400;2023-04-25T10:59:18;4.20;;;0.50;;
47103;SDS011;32853;52.164;5.400;2023-04-25T11:04:19;5.45;;;1.63;;
47103;SDS011;32853;52.164;5.400;2023-04-25T11:09:29;4.00;;;0.65;;
47103;SDS011;32853;52.164;5.400;2023-04-25T11:11:55;5.20;;;0.70;;
47103;SDS011;32853;52.164;5.400;2023-04-25T11:14:22;4.22;;;0.88;;
47103;SDS011;32853;52.164;5.400;2023-04-25T11:16:52;3.75;;;0.80;;
47103;SDS011;32853;52.164;5.400;2023-04-25T11:19:19;9.70;;;1.10;;
47103;SDS011;32853;52.164;5.400;2023-04-25T11:24:32;2.17;;;0.70;;
47103;SDS011;32853;52.164;5.400;2023-04-25T11:27:05;5.90;;;0.47;;
47103;SDS011;32853;52.164;5.400;2023-04-25T11:29:32;3.05;;;0.90;;
47103;SDS011;32853;52.164;5.400;2023-04-25T11:31:59;5.40;;;0.50;;
47103;SDS011;32853;52.164;5.400;2023-04-25T11:34:26;3.20;;;0.55;;
47103;SDS011;32853;52.164;5.400;2023-04-25T11:36:52;5.10;;;0.60;;
47103;SDS011;32853;52.164;5.400;2023-04-25T11:39:18;10.60;;;0.55;;
47103;SDS011;32853;52.164;5.400;2023-04-25T11:41:44;9.02;;;0.65;;
47103;SDS011;32853;52.164;5.400;2023-04-25T11:44:10;5.22;;;0.50;;
47103;SDS011;32853;52.164;5.400;2023-04-25T11:46:35;3.00;;;0.60;;
47103;SDS011;32853;52.164;5.400;2023-04-25T11:49:02;2.97;;;0.52;;
47103;SDS011;32853;52.164;5.400;2023-04-25T11:51:29;9.80;;;0.80;;
47103;SDS011;32853;52.164;5.400;2023-04-25T11:53:57;5.57;;;0.40;;
47103;SDS011;32853;52.164;5.400;2023-04-25T11:56:24;14.98;;;0.47;;
47103;SDS011;32853;52.164;5.400;2023-04-25T11:58:59;2.55;;;0.50;;
47103;SDS011;32853;52.164;5.400;2023-04-25T12:01:47;1.80;;;0.30;;
47103;SDS011;32853;52.164;5.400;2023-04-25T12:06:55;4.82;;;0.65;;
47103;SDS011;32853;52.164;5.400;2023-04-25T12:09:32;5.85;;;0.95;;
47103;SDS011;32853;52.164;5.400;2023-04-25T12:11:59;2.25;;;0.43;;
47103;SDS011;32853;52.164;5.400;2023-04-25T12:14:28;2.80;;;0.70;;
47103;SDS011;32853;52.164;5.400;2023-04-25T12:17:03;1.83;;;0.38;;
47103;SDS011;32853;52.164;5.400;2023-04-25T12:19:41;2.63;;;0.43;;
47103;SDS011;32853;52.164;5.400;2023-04-25T12:22:22;3.67;;;0.50;;
47103;SDS011;32853;52.164;5.400;2023-04-25T12:24:50;6.53;;;0.40;;
47103;SDS011;32853;52.164;5.400;2023-04-25T12:27:18;14.10;;;1.63;;
47103;SDS011;32853;52.164;5.400;2023-04-25T12:29:51;3.92;;;0.73;;
47103;SDS011;32853;52.164;5.400;2023-04-25T12:32:20;4.13;;;0.50;;
47103;SDS011;32853;52.164;5.400;2023-04-25T12:34:47;12.27;;;1.52;;
47103;SDS011;32853;52.164;5.400;2023-04-25T12:37:19;7.30;;;0.60;;
47103;SDS011;32853;52.164;5.400;2023-04-25T12:39:54;4.10;;;0.30;;
47103;SDS011;32853;52.164;5.400;2023-04-25T12:42:22;1.83;;;0.30;;
47103;SDS011;32853;52.164;5.400;2023-04-25T12:44:49;4.28;;;0.40;;
47103;SDS011;32853;52.164;5.400;2023-04-25T12:47:18;2.63;;;0.68;;
47103;SDS011;32853;52.164;5.400;2023-04-25T12:49:43;10.48;;;0.93;;
47103;SDS011;32853;52.164;5.400;2023-04-25T12:52:13;1.25;;;0.30;;
47103;SDS011;32853;52.164;5.400;2023-04-25T12:54:40;2.17;;;0.30;;
47103;SDS011;32853;52.164;5.400;2023-04-25T12:57:08;6.28;;;0.38;;
47103;SDS011;32853;52.164;5.400;2023-04-25T12:59:33;9.23;;;0.43;;
47103;SDS011;32853;52.164;5.400;2023-04-25T13:02:02;3.00;;;0.50;;
47103;SDS011;32853;52.164;5.400;2023-04-25T13:04:27;2.95;;;0.47;;
47103;SDS011;32853;52.164;5.400;2023-04-25T13:06:53;1.88;;;0.35;;
47103;SDS011;32853;52.164;5.400;2023-04-25T13:09:23;2.15;;;0.40;;
47103;SDS011;32853;52.164;5.400;2023-04-25T13:11:49;4.65;;;0.50;;
47103;SDS011;32853;52.164;5.400;2023-04-25T13:14:16;2.65;;;0.40;;
47103;SDS011;32853;52.164;5.400;2023-04-25T13:16:42;2.28;;;0.40;;
47103;SDS011;32853;52.164;5.400;2023-04-25T13:19:12;3.17;;;0.52;;
47103;SDS011;32853;52.164;5.400;2023-04-25T13:21:38;3.90;;;0.60;;
47103;SDS011;32853;52.164;5.400;2023-04-25T13:24:03;3.97;;;0.35;;
47103;SDS011;32853;52.164;5.400;2023-04-25T13:26:30;3.30;;;0.55;;
47103;SDS011;32853;52.164;5.400;2023-04-25T13:29:05;3.22;;;0.40;;
47103;SDS011;32853;52.164;5.400;2023-04-25T13:31:31;4.05;;;0.85;;
47103;SDS011;32853;52.164;5.400;2023-04-25T13:33:56;1.13;;;0.40;;
47103;SDS011;32853;52.164;5.400;2023-04-25T13:36:22;1.17;;;0.30;;
47103;SDS011;32853;52.164;5.400;2023-04-25T13:38:47;3.55;;;0.43;;
47103;SDS011;32853;52.164;5.400;2023-04-25T13:41:14;6.55;;;0.57;;
47103;SDS011;32853;52.164;5.400;2023-04-25T13:43:43;6.10;;;0.40;;
47103;SDS011;32853;52.164;5.400;2023-04-25T13:46:09;3.90;;;0.40;;
47103;SDS011;32853;52.164;5.400;2023-04-25T13:48:35;6.45;;;0.63;;
47103;SDS011;32853;52.164;5.400;2023-04-25T13:51:01;1.95;;;0.50;;
47103;SDS011;32853;52.164;5.400;2023-04-25T13:53:26;3.53;;;0.45;;
47103;SDS011;32853;52.164;5.400;2023-04-25T13:56:03;3.42;;;0.60;;
47103;SDS011;32853;52.164;5.400;2023-04-25T13:58:33;3.40;;;0.50;;
47103;SDS011;32853;52.164;5.400;2023-04-25T14:03:35;2.30;;;0.43;;
47103;SDS011;32853;52.164;5.400;2023-04-25T14:08:34;2.15;;;0.50;;
47103;SDS011;32853;52.164;5.400;2023-04-25T14:11:03;4.55;;;1.67;;
47103;SDS011;32853;52.164;5.400;2023-04-25T14:13:28;5.30;;;0.60;;
47103;SDS011;32853;52.164;5.400;2023-04-25T14:15:55;4.20;;;0.50;;
47103;SDS011;32853;52.164;5.400;2023-04-25T14:18:29;3.22;;;0.70;;
47103;SDS011;32853;52.164;5.400;2023-04-25T14:20:55;5.30;;;0.80;;
47103;SDS011;32853;52.164;5.400;2023-04-25T14:25:48;10.07;;;1.13;;
47103;SDS011;32853;52.164;5.400;2023-04-25T14:28:20;1.42;;;0.60;;
47103;SDS011;32853;52.164;5.400;2023-04-25T14:30:45;4.87;;;1.00;;
47103;SDS011;32853;52.164;5.400;2023-04-25T14:33:11;1.23;;;0.50;;
47103;SDS011;32853;52.164;5.400;2023-04-25T14:35:52;6.15;;;0.75;;
47103;SDS011;32853;52.164;5.400;2023-04-25T14:38:19;3.92;;;0.73;;
47103;SDS011;32853;52.164;5.400;2023-04-25T14:40:48;4.85;;;0.40;;
47103;SDS011;32853;52.164;5.400;2023-04-25T14:43:20;2.97;;;0.52;;
47103;SDS011;32853;52.164;5.400;2023-04-25T14:45:45;3.00;;;0.40;;
47103;SDS011;32853;52.164;5.400;2023-04-25T14:48:11;2.35;;;0.40;;
47103;SDS011;32853;52.164;5.400;2023-04-25T14:50:39;5.95;;;0.40;;
47103;SDS011;32853;52.164;5.400;2023-04-25T14:53:07;5.55;;;0.57;;
47103;SDS011;32853;52.164;5.400;2023-04-25T14:55:36;0.70;;;0.30;;
47103;SDS011;32853;52.164;5.400;2023-04-25T14:58:11;3.97;;;0.93;;
47103;SDS011;32853;52.164;5.400;2023-04-25T15:00:37;7.40;;;0.47;;
47103;SDS011;32853;52.164;5.400;2023-04-25T15:03:07;2.45;;;0.50;;
47103;SDS011;32853;52.164;5.400;2023-04-25T15:05:33;0.77;;;0.25;;
47103;SDS011;32853;52.164;5.400;2023-04-25T15:11:04;3.53;;;0.40;;
47103;SDS011;32853;52.164;5.400;2023-04-25T15:13:32;2.03;;;0.40;;
47103;SDS011;32853;52.164;5.400;2023-04-25T15:15:57;2.83;;;0.70;;
47103;SDS011;32853;52.164;5.400;2023-04-25T15:18:23;2.28;;;0.45;;
47103;SDS011;32853;52.164;5.400;2023-04-25T15:20:52;5.63;;;0.47;;
47103;SDS011;32853;52.164;5.400;2023-04-25T15:23:18;3.80;;;0.40;;
47103;SDS011;32853;52.164;5.400;2023-04-25T15:25:49;1.75;;;0.50;;
47103;SDS011;32853;52.164;5.400;2023-04-25T15:28:15;3.88;;;0.93;;
47103;SDS011;32853;52.164;5.400;2023-04-25T15:30:41;4.53;;;0.77;;
47103;SDS011;32853;52.164;5.400;2023-04-25T15:33:10;2.28;;;0.57;;
47103;SDS011;32853;52.164;5.400;2023-04-25T15:35:35;4.82;;;0.82;;
47103;SDS011;32853;52.164;5.400;2023-04-25T15:38:01;5.00;;;0.45;;
47103;SDS011;32853;52.164;5.400;2023-04-25T15:40:26;2.08;;;0.68;;
47103;SDS011;32853;52.164;5.400;2023-04-25T15:42:52;4.90;;;0.50;;
47103;SDS011;32853;52.164;5.400;2023-04-25T15:45:18;1.20;;;0.40;;
47103;SDS011;32853;52.164;5.400;2023-04-25T15:47:45;3.53;;;0.80;;
47103;SDS011;32853;52.164;5.400;2023-04-25T15:50:11;4.55;;;0.60;;
47103;SDS011;32853;52.164;5.400;2023-04-25T15:52:40;2.92;;;0.35;;
47103;SDS011;32853;52.164;5.400;2023-04-25T15:55:06;9.55;;;0.68;;
47103;SDS011;32853;52.164;5.400;2023-04-25T15:57:33;4.85;;;0.63;;
47103;SDS011;32853;52.164;5.400;2023-04-25T16:00:00;7.60;;;0.50;;